sensor_id;sensor_type;location;lat;lon;timestamp;P1;durP1;ratioP1;P2;durP2;ratioP2
49978;SDS011;35869;50.990;6.962;2023-04-04T00:01:28;4.10;;;1.55;;
49978;SDS011;35869;50.990;6.962;2023-04-04T00:06:28;3.15;;;1.48;;
49978;SDS011;35869;50.990;6.962;2023-04-04T00:11:28;2.92;;;1.75;;
49978;SDS011;35869;50.990;6.962;2023-04-04T00:16:28;4.25;;;1.83;;
49978;SDS011;35869;50.990;6.962;2023-04-04T00:21:29;3.03;;;1.90;;
49978;SDS011;35869;50.990;6.962;2023-04-04T00:26:29;2.72;;;1.85;;
49978;SDS011;35869;50.990;6.962;2023-04-04T00:31:29;2.35;;;1.70;;
49978;SDS011;35869;50.990;6.962;2023-04-04T00:36:29;3.90;;;1.85;;
49978;SDS011;35869;50.990;6.962;2023-04-04T00:41:30;2.80;;;2.13;;
49978;SDS011;35869;50.990;6.962;2023-04-04T00:46:30;4.10;;;1.70;;
49978;SDS011;35869;50.990;6.962;2023-04-04T00:56:31;3.67;;;1.98;;
49978;SDS011;35869;50.990;6.962;2023-04-04T01:01:36;2.85;;;2.08;;
49978;SDS011;35869;50.990;6.962;2023-04-04T01:06:36;1.95;;;1.63;;
49978;SDS011;35869;50.990;6.962;2023-04-04T01:11:37;2.17;;;1.80;;
49978;SDS011;35869;50.990;6.962;2023-04-04T01:16:37;4.63;;;2.10;;
49978;SDS011;35869;50.990;6.962;2023-04-04T01:21:38;5.25;;;2.38;;
49978;SDS011;35869;50.990;6.962;2023-04-04T01:26:39;5.57;;;2.03;;
49978;SDS011;35869;50.990;6.962;2023-04-04T01:31:41;3.90;;;1.80;;
49978;SDS011;35869;50.990;6.962;2023-04-04T01:41:49;2.45;;;1.80;;
49978;SDS011;35869;50.990;6.962;2023-04-04T01:46:53;3.45;;;2.10;;
49978;SDS011;35869;50.990;6.962;2023-04-04T01:51:54;3.20;;;1.77;;
49978;SDS011;35869;50.990;6.962;2023-04-04T01:56:54;3.50;;;1.98;;
49978;SDS011;35869;50.990;6.962;2023-04-04T02:01:54;4.60;;;2.17;;
49978;SDS011;35869;50.990;6.962;2023-04-04T02:06:54;2.20;;;1.80;;
49978;SDS011;35869;50.990;6.962;2023-04-04T02:11:54;2.60;;;1.55;;
49978;SDS011;35869;50.990;6.962;2023-04-04T02:16:55;3.50;;;1.80;;
49978;SDS011;35869;50.990;6.962;2023-04-04T02:21:55;3.17;;;2.42;;
49978;SDS011;35869;50.990;6.962;2023-04-04T02:26:55;3.80;;;2.35;;
49978;SDS011;35869;50.990;6.962;2023-04-04T02:31:55;4.15;;;2.28;;
49978;SDS011;35869;50.990;6.962;2023-04-04T02:36:55;3.67;;;1.95;;
49978;SDS011;35869;50.990;6.962;2023-04-04T02:41:56;4.78;;;2.20;;
49978;SDS011;35869;50.990;6.962;2023-04-04T02:46:56;4.05;;;2.53;;
49978;SDS011;35869;50.990;6.962;2023-04-04T02:51:56;3.70;;;2.42;;
49978;SDS011;35869;50.990;6.962;2023-04-04T02:56:56;2.17;;;1.85;;
49978;SDS011;35869;50.990;6.962;2023-04-04T03:01:56;3.75;;;2.45;;
49978;SDS011;35869;50.990;6.962;2023-04-04T03:06:57;2.40;;;2.00;;
49978;SDS011;35869;50.990;6.962;2023-04-04T03:11:57;3.08;;;2.08;;
49978;SDS011;35869;50.990;6.962;2023-04-04T03:16:57;4.07;;;1.92;;
49978;SDS011;35869;50.990;6.962;2023-04-04T03:21:57;4.00;;;2.15;;
49978;SDS011;35869;50.990;6.962;2023-04-04T03:26:58;3.00;;;1.90;;
49978;SDS011;35869;50.990;6.962;2023-04-04T03:31:59;2.58;;;1.83;;
49978;SDS011;35869;50.990;6.962;2023-04-04T03:36:59;5.20;;;2.10;;
49978;SDS011;35869;50.990;6.962;2023-04-04T03:41:59;4.78;;;2.40;;
49978;SDS011;35869;50.990;6.962;2023-04-04T03:46:59;2.65;;;1.98;;
49978;SDS011;35869;50.990;6.962;2023-04-04T03:52:00;4.50;;;2.35;;
49978;SDS011;35869;50.990;6.962;2023-04-04T03:57:00;3.42;;;2.17;;
49978;SDS011;35869;50.990;6.962;2023-04-04T04:02:00;3.93;;;2.90;;
49978;SDS011;35869;50.990;6.962;2023-04-04T04:07:00;3.92;;;1.90;;
49978;SDS011;35869;50.990;6.962;2023-04-04T04:12:00;8.25;;;2.85;;
49978;SDS011;35869;50.990;6.962;2023-04-04T04:17:01;3.10;;;2.13;;
49978;SDS011;35869;50.990;6.962;2023-04-04T04:22:01;3.28;;;2.00;;
49978;SDS011;35869;50.990;6.962;2023-04-04T04:32:02;3.20;;;2.15;;
49978;SDS011;35869;50.990;6.962;2023-04-04T04:37:03;3.72;;;2.28;;
49978;SDS011;35869;50.990;6.962;2023-04-04T04:42:03;5.93;;;2.58;;
49978;SDS011;35869;50.990;6.962;2023-04-04T04:47:03;3.20;;;1.90;;
49978;SDS011;35869;50.990;6.962;2023-04-04T04:52:03;4.35;;;2.10;;
49978;SDS011;35869;50.990;6.962;2023-04-04T04:57:04;3.33;;;2.30;;
49978;SDS011;35869;50.990;6.962;2023-04-04T05:02:04;2.40;;;2.17;;
49978;SDS011;35869;50.990;6.962;2023-04-04T05:07:04;5.40;;;2.60;;
49978;SDS011;35869;50.990;6.962;2023-04-04T05:12:04;4.50;;;2.88;;
49978;SDS011;35869;50.990;6.962;2023-04-04T05:17:05;4.03;;;2.17;;
49978;SDS011;35869;50.990;6.962;2023-04-04T05:22:05;4.43;;;2.65;;
49978;SDS011;35869;50.990;6.962;2023-04-04T05:27:05;4.55;;;3.20;;
49978;SDS011;35869;50.990;6.962;2023-04-04T05:32:06;4.15;;;2.75;;
49978;SDS011;35869;50.990;6.962;2023-04-04T05:37:06;4.65;;;2.97;;
49978;SDS011;35869;50.990;6.962;2023-04-04T05:42:06;3.50;;;2.67;;
49978;SDS011;35869;50.990;6.962;2023-04-04T05:47:07;7.63;;;3.35;;
49978;SDS011;35869;50.990;6.962;2023-04-04T05:52:07;3.78;;;2.67;;
49978;SDS011;35869;50.990;6.962;2023-04-04T05:57:07;3.20;;;2.90;;
49978;SDS011;35869;50.990;6.962;2023-04-04T06:02:08;3.95;;;2.70;;
49978;SDS011;35869;50.990;6.962;2023-04-04T06:07:08;2.95;;;2.63;;
49978;SDS011;35869;50.990;6.962;2023-04-04T06:12:08;3.85;;;2.80;;
49978;SDS011;35869;50.990;6.962;2023-04-04T06:17:08;5.35;;;2.47;;
49978;SDS011;35869;50.990;6.962;2023-04-04T06:22:08;4.13;;;2.75;;
49978;SDS011;35869;50.990;6.962;2023-04-04T06:27:09;3.35;;;2.58;;
49978;SDS011;35869;50.990;6.962;2023-04-04T06:32:09;3.47;;;2.50;;
49978;SDS011;35869;50.990;6.962;2023-04-04T06:37:09;3.95;;;2.42;;
49978;SDS011;35869;50.990;6.962;2023-04-04T06:42:09;3.80;;;2.30;;
49978;SDS011;35869;50.990;6.962;2023-04-04T06:47:09;2.83;;;2.45;;
49978;SDS011;35869;50.990;6.962;2023-04-04T06:52:09;3.53;;;2.60;;
49978;SDS011;35869;50.990;6.962;2023-04-04T06:57:10;3.43;;;2.00;;
49978;SDS011;35869;50.990;6.962;2023-04-04T07:02:10;5.10;;;2.20;;
49978;SDS011;35869;50.990;6.962;2023-04-04T07:07:10;2.55;;;1.85;;
49978;SDS011;35869;50.990;6.962;2023-04-04T07:12:11;3.33;;;2.17;;
49978;SDS011;35869;50.990;6.962;2023-04-04T07:17:11;3.30;;;1.92;;
49978;SDS011;35869;50.990;6.962;2023-04-04T07:22:11;3.35;;;1.60;;
49978;SDS011;35869;50.990;6.962;2023-04-04T07:27:11;2.95;;;1.88;;
49978;SDS011;35869;50.990;6.962;2023-04-04T07:32:12;4.25;;;1.92;;
49978;SDS011;35869;50.990;6.962;2023-04-04T07:37:12;2.33;;;1.67;;
49978;SDS011;35869;50.990;6.962;2023-04-04T07:42:12;2.95;;;1.70;;
49978;SDS011;35869;50.990;6.962;2023-04-04T07:47:12;3.05;;;1.55;;
49978;SDS011;35869;50.990;6.962;2023-04-04T07:52:12;4.13;;;2.08;;
49978;SDS011;35869;50.990;6.962;2023-04-04T07:57:13;2.90;;;1.67;;
49978;SDS011;35869;50.990;6.962;2023-04-04T08:02:13;6.20;;;1.85;;
49978;SDS011;35869;50.990;6.962;2023-04-04T08:07:13;4.30;;;1.80;;
49978;SDS011;35869;50.990;6.962;2023-04-04T08:12:13;3.25;;;1.70;;
49978;SDS011;35869;50.990;6.962;2023-04-04T08:17:13;3.63;;;2.00;;
49978;SDS011;35869;50.990;6.962;2023-04-04T08:22:13;7.40;;;2.22;;
49978;SDS011;35869;50.990;6.962;2023-04-04T08:27:14;4.32;;;1.90;;
49978;SDS011;35869;50.990;6.962;2023-04-04T08:32:14;3.13;;;2.22;;
49978;SDS011;35869;50.990;6.962;2023-04-04T08:37:14;3.33;;;1.73;;
49978;SDS011;35869;50.990;6.962;2023-04-04T08:42:14;2.25;;;1.52;;
49978;SDS011;35869;50.990;6.962;2023-04-04T08:47:17;3.35;;;1.52;;
49978;SDS011;35869;50.990;6.962;2023-04-04T08:52:19;5.22;;;2.20;;
49978;SDS011;35869;50.990;6.962;2023-04-04T08:57:21;2.47;;;1.58;;
49978;SDS011;35869;50.990;6.962;2023-04-04T09:02:23;1.67;;;1.53;;
49978;SDS011;35869;50.990;6.962;2023-04-04T09:07:28;3.42;;;1.67;;
49978;SDS011;35869;50.990;6.962;2023-04-04T09:12:30;2.35;;;1.80;;
49978;SDS011;35869;50.990;6.962;2023-04-04T09:17:35;2.20;;;1.65;;
49978;SDS011;35869;50.990;6.962;2023-04-04T09:22:35;3.05;;;2.17;;
49978;SDS011;35869;50.990;6.962;2023-04-04T09:27:44;2.35;;;1.77;;
49978;SDS011;35869;50.990;6.962;2023-04-04T09:32:44;2.85;;;1.80;;
49978;SDS011;35869;50.990;6.962;2023-04-04T09:37:44;5.27;;;1.73;;
49978;SDS011;35869;50.990;6.962;2023-04-04T09:42:45;3.67;;;2.37;;
49978;SDS011;35869;50.990;6.962;2023-04-04T09:47:45;2.72;;;1.80;;
49978;SDS011;35869;50.990;6.962;2023-04-04T09:52:47;3.10;;;1.83;;
49978;SDS011;35869;50.990;6.962;2023-04-04T09:57:48;3.30;;;1.80;;
49978;SDS011;35869;50.990;6.962;2023-04-04T10:02:48;4.00;;;1.80;;
49978;SDS011;35869;50.990;6.962;2023-04-04T10:07:50;3.50;;;2.08;;
49978;SDS011;35869;50.990;6.962;2023-04-04T10:12:51;1.67;;;1.58;;
49978;SDS011;35869;50.990;6.962;2023-04-04T10:17:52;5.80;;;2.40;;
49978;SDS011;35869;50.990;6.962;2023-04-04T10:22:52;2.50;;;1.95;;
49978;SDS011;35869;50.990;6.962;2023-04-04T10:27:53;2.78;;;1.85;;
49978;SDS011;35869;50.990;6.962;2023-04-04T10:32:57;2.17;;;1.60;;
49978;SDS011;35869;50.990;6.962;2023-04-04T10:38:01;2.65;;;1.83;;
49978;SDS011;35869;50.990;6.962;2023-04-04T10:43:03;2.33;;;2.15;;
49978;SDS011;35869;50.990;6.962;2023-04-04T10:48:06;7.03;;;2.17;;
49978;SDS011;35869;50.990;6.962;2023-04-04T10:53:07;4.70;;;2.33;;
49978;SDS011;35869;50.990;6.962;2023-04-04T10:58:07;2.07;;;1.87;;
49978;SDS011;35869;50.990;6.962;2023-04-04T11:03:07;3.00;;;2.20;;
49978;SDS011;35869;50.990;6.962;2023-04-04T11:08:08;4.57;;;2.67;;
49978;SDS011;35869;50.990;6.962;2023-04-04T11:13:10;4.55;;;2.63;;
49978;SDS011;35869;50.990;6.962;2023-04-04T11:18:14;3.42;;;2.28;;
49978;SDS011;35869;50.990;6.962;2023-04-04T11:33:34;3.08;;;1.92;;
49978;SDS011;35869;50.990;6.962;2023-04-04T11:38:56;3.20;;;1.92;;
49978;SDS011;35869;50.990;6.962;2023-04-04T11:43:57;3.70;;;1.92;;
49978;SDS011;35869;50.990;6.962;2023-04-04T11:49:08;3.17;;;2.10;;
49978;SDS011;35869;50.990;6.962;2023-04-04T11:54:15;1.75;;;1.50;;
49978;SDS011;35869;50.990;6.962;2023-04-04T11:59:17;2.22;;;1.70;;
49978;SDS011;35869;50.990;6.962;2023-04-04T12:04:19;2.30;;;1.98;;
49978;SDS011;35869;50.990;6.962;2023-04-04T12:14:22;2.40;;;1.88;;
49978;SDS011;35869;50.990;6.962;2023-04-04T12:19:23;3.97;;;1.75;;
49978;SDS011;35869;50.990;6.962;2023-04-04T12:24:23;2.00;;;1.50;;
49978;SDS011;35869;50.990;6.962;2023-04-04T12:29:24;2.80;;;1.52;;
49978;SDS011;35869;50.990;6.962;2023-04-04T12:39:30;2.80;;;1.58;;
49978;SDS011;35869;50.990;6.962;2023-04-04T12:44:31;2.97;;;1.58;;
49978;SDS011;35869;50.990;6.962;2023-04-04T12:54:37;3.20;;;2.30;;
49978;SDS011;35869;50.990;6.962;2023-04-04T12:59:38;4.60;;;1.80;;
49978;SDS011;35869;50.990;6.962;2023-04-04T13:04:45;2.38;;;1.20;;
49978;SDS011;35869;50.990;6.962;2023-04-04T13:09:56;2.03;;;1.50;;
49978;SDS011;35869;50.990;6.962;2023-04-04T13:14:58;3.65;;;1.52;;
49978;SDS011;35869;50.990;6.962;2023-04-04T13:20:03;1.67;;;1.50;;
49978;SDS011;35869;50.990;6.962;2023-04-04T13:25:04;1.70;;;1.60;;
49978;SDS011;35869;50.990;6.962;2023-04-04T13:30:05;1.90;;;1.60;;
49978;SDS011;35869;50.990;6.962;2023-04-04T13:35:07;3.38;;;1.67;;
49978;SDS011;35869;50.990;6.962;2023-04-04T13:40:08;3.03;;;1.80;;
49978;SDS011;35869;50.990;6.962;2023-04-04T13:45:08;5.72;;;2.20;;
49978;SDS011;35869;50.990;6.962;2023-04-04T13:55:09;2.33;;;1.70;;
49978;SDS011;35869;50.990;6.962;2023-04-04T14:05:10;2.83;;;1.90;;
49978;SDS011;35869;50.990;6.962;2023-04-04T14:10:10;2.28;;;1.95;;
49978;SDS011;35869;50.990;6.962;2023-04-04T14:15:10;4.75;;;1.83;;
49978;SDS011;35869;50.990;6.962;2023-04-04T14:20:10;3.28;;;1.90;;
49978;SDS011;35869;50.990;6.962;2023-04-04T14:25:11;3.03;;;2.03;;
49978;SDS011;35869;50.990;6.962;2023-04-04T14:30:11;2.58;;;1.83;;
49978;SDS011;35869;50.990;6.962;2023-04-04T14:35:12;2.67;;;1.83;;
49978;SDS011;35869;50.990;6.962;2023-04-04T14:40:12;1.83;;;1.40;;
49978;SDS011;35869;50.990;6.962;2023-04-04T14:45:12;2.63;;;1.83;;
49978;SDS011;35869;50.990;6.962;2023-04-04T14:50:13;4.72;;;1.85;;
49978;SDS011;35869;50.990;6.962;2023-04-04T14:55:14;2.67;;;1.80;;
49978;SDS011;35869;50.990;6.962;2023-04-04T15:05:15;3.40;;;1.70;;
49978;SDS011;35869;50.990;6.962;2023-04-04T15:15:15;3.22;;;2.10;;
49978;SDS011;35869;50.990;6.962;2023-04-04T15:20:15;3.78;;;2.33;;
49978;SDS011;35869;50.990;6.962;2023-04-04T15:25:16;4.13;;;2.00;;
49978;SDS011;35869;50.990;6.962;2023-04-04T15:30:16;4.63;;;2.35;;
49978;SDS011;35869;50.990;6.962;2023-04-04T15:35:17;3.60;;;2.13;;
49978;SDS011;35869;50.990;6.962;2023-04-04T15:40:18;14.48;;;2.60;;
49978;SDS011;35869;50.990;6.962;2023-04-04T15:45:19;3.95;;;2.50;;
49978;SDS011;35869;50.990;6.962;2023-04-04T15:50:19;3.10;;;2.03;;
49978;SDS011;35869;50.990;6.962;2023-04-04T15:55:19;3.93;;;1.73;;
49978;SDS011;35869;50.990;6.962;2023-04-04T16:00:19;3.45;;;2.13;;
49978;SDS011;35869;50.990;6.962;2023-04-04T16:05:20;4.40;;;2.00;;
49978;SDS011;35869;50.990;6.962;2023-04-04T16:10:20;1.85;;;1.75;;
49978;SDS011;35869;50.990;6.962;2023-04-04T16:15:20;3.60;;;2.20;;
49978;SDS011;35869;50.990;6.962;2023-04-04T16:20:21;4.13;;;2.28;;
49978;SDS011;35869;50.990;6.962;2023-04-04T16:25:21;2.80;;;2.22;;
49978;SDS011;35869;50.990;6.962;2023-04-04T16:30:21;5.70;;;2.00;;
49978;SDS011;35869;50.990;6.962;2023-04-04T16:35:21;2.53;;;1.95;;
49978;SDS011;35869;50.990;6.962;2023-04-04T16:40:22;4.25;;;2.28;;
49978;SDS011;35869;50.990;6.962;2023-04-04T16:45:22;4.03;;;2.13;;
49978;SDS011;35869;50.990;6.962;2023-04-04T16:50:22;4.15;;;2.38;;
49978;SDS011;35869;50.990;6.962;2023-04-04T16:55:22;3.90;;;2.17;;
49978;SDS011;35869;50.990;6.962;2023-04-04T17:00:23;3.85;;;2.25;;
49978;SDS011;35869;50.990;6.962;2023-04-04T17:05:23;4.70;;;2.17;;
49978;SDS011;35869;50.990;6.962;2023-04-04T17:10:23;4.97;;;2.40;;
49978;SDS011;35869;50.990;6.962;2023-04-04T17:15:23;3.38;;;2.05;;
49978;SDS011;35869;50.990;6.962;2023-04-04T17:20:24;2.97;;;2.08;;
49978;SDS011;35869;50.990;6.962;2023-04-04T17:25:24;3.67;;;1.90;;
49978;SDS011;35869;50.990;6.962;2023-04-04T17:30:24;2.63;;;2.03;;
49978;SDS011;35869;50.990;6.962;2023-04-04T17:35:24;4.45;;;1.83;;
49978;SDS011;35869;50.990;6.962;2023-04-04T17:40:24;5.15;;;2.78;;
49978;SDS011;35869;50.990;6.962;2023-04-04T17:45:25;5.25;;;2.33;;
49978;SDS011;35869;50.990;6.962;2023-04-04T17:50:25;2.93;;;2.27;;
49978;SDS011;35869;50.990;6.962;2023-04-04T17:55:26;3.88;;;2.03;;
49978;SDS011;35869;50.990;6.962;2023-04-04T18:00:26;4.60;;;2.30;;
49978;SDS011;35869;50.990;6.962;2023-04-04T18:05:27;2.42;;;1.85;;
49978;SDS011;35869;50.990;6.962;2023-04-04T18:10:27;2.85;;;2.30;;
49978;SDS011;35869;50.990;6.962;2023-04-04T18:15:27;2.50;;;2.15;;
49978;SDS011;35869;50.990;6.962;2023-04-04T18:20:28;4.30;;;2.13;;
49978;SDS011;35869;50.990;6.962;2023-04-04T18:25:28;4.43;;;2.95;;
49978;SDS011;35869;50.990;6.962;2023-04-04T18:30:29;3.03;;;2.30;;
49978;SDS011;35869;50.990;6.962;2023-04-04T18:35:29;3.33;;;2.27;;
49978;SDS011;35869;50.990;6.962;2023-04-04T18:40:29;4.13;;;2.55;;
49978;SDS011;35869;50.990;6.962;2023-04-04T18:45:30;4.25;;;2.50;;
49978;SDS011;35869;50.990;6.962;2023-04-04T18:50:30;5.50;;;2.58;;
49978;SDS011;35869;50.990;6.962;2023-04-04T18:55:30;6.32;;;2.30;;
49978;SDS011;35869;50.990;6.962;2023-04-04T19:00:31;3.22;;;2.53;;
49978;SDS011;35869;50.990;6.962;2023-04-04T19:05:31;3.83;;;2.28;;
49978;SDS011;35869;50.990;6.962;2023-04-04T19:10:35;5.22;;;2.88;;
49978;SDS011;35869;50.990;6.962;2023-04-04T19:15:35;3.78;;;2.50;;
49978;SDS011;35869;50.990;6.962;2023-04-04T19:20:35;5.32;;;2.70;;
49978;SDS011;35869;50.990;6.962;2023-04-04T19:25:35;5.40;;;2.78;;
49978;SDS011;35869;50.990;6.962;2023-04-04T19:35:49;3.22;;;2.53;;
49978;SDS011;35869;50.990;6.962;2023-04-04T19:41:00;3.80;;;2.67;;
49978;SDS011;35869;50.990;6.962;2023-04-04T19:46:11;5.35;;;2.75;;
49978;SDS011;35869;50.990;6.962;2023-04-04T19:56:17;7.28;;;3.42;;
49978;SDS011;35869;50.990;6.962;2023-04-04T20:01:22;8.05;;;3.40;;
49978;SDS011;35869;50.990;6.962;2023-04-04T20:06:24;6.05;;;3.10;;
49978;SDS011;35869;50.990;6.962;2023-04-04T20:11:30;6.88;;;3.55;;
49978;SDS011;35869;50.990;6.962;2023-04-04T20:16:31;6.25;;;2.90;;
49978;SDS011;35869;50.990;6.962;2023-04-04T20:21:31;4.30;;;3.03;;
49978;SDS011;35869;50.990;6.962;2023-04-04T20:26:51;4.90;;;2.63;;
49978;SDS011;35869;50.990;6.962;2023-04-04T20:37:02;4.10;;;2.78;;
49978;SDS011;35869;50.990;6.962;2023-04-04T20:52:41;5.20;;;3.47;;
49978;SDS011;35869;50.990;6.962;2023-04-04T20:57:42;4.70;;;3.30;;
49978;SDS011;35869;50.990;6.962;2023-04-04T21:02:44;4.57;;;3.15;;
49978;SDS011;35869;50.990;6.962;2023-04-04T21:07:44;4.70;;;3.33;;
49978;SDS011;35869;50.990;6.962;2023-04-04T21:12:44;4.70;;;3.78;;
49978;SDS011;35869;50.990;6.962;2023-04-04T21:17:45;6.73;;;3.50;;
49978;SDS011;35869;50.990;6.962;2023-04-04T21:22:45;4.60;;;2.88;;
49978;SDS011;35869;50.990;6.962;2023-04-04T21:27:48;4.88;;;3.05;;
49978;SDS011;35869;50.990;6.962;2023-04-04T21:32:54;3.00;;;2.47;;
49978;SDS011;35869;50.990;6.962;2023-04-04T21:37:54;3.63;;;2.70;;
49978;SDS011;35869;50.990;6.962;2023-04-04T21:42:54;5.95;;;3.38;;
49978;SDS011;35869;50.990;6.962;2023-04-04T21:47:54;6.45;;;3.50;;
49978;SDS011;35869;50.990;6.962;2023-04-04T21:52:55;5.00;;;3.08;;
49978;SDS011;35869;50.990;6.962;2023-04-04T21:57:55;4.85;;;3.38;;
49978;SDS011;35869;50.990;6.962;2023-04-04T22:02:55;6.13;;;3.65;;
49978;SDS011;35869;50.990;6.962;2023-04-04T22:07:56;6.50;;;3.23;;
49978;SDS011;35869;50.990;6.962;2023-04-04T22:12:56;5.00;;;3.50;;
49978;SDS011;35869;50.990;6.962;2023-04-04T22:17:56;5.10;;;3.28;;
49978;SDS011;35869;50.990;6.962;2023-04-04T22:23:00;9.00;;;4.22;;
49978;SDS011;35869;50.990;6.962;2023-04-04T22:28:01;4.97;;;3.40;;
49978;SDS011;35869;50.990;6.962;2023-04-04T22:33:04;6.07;;;3.80;;
49978;SDS011;35869;50.990;6.962;2023-04-04T22:38:04;7.07;;;3.97;;
49978;SDS011;35869;50.990;6.962;2023-04-04T22:43:04;4.05;;;3.22;;
49978;SDS011;35869;50.990;6.962;2023-04-04T22:48:05;5.10;;;3.63;;
49978;SDS011;35869;50.990;6.962;2023-04-04T22:53:05;6.13;;;3.70;;
49978;SDS011;35869;50.990;6.962;2023-04-04T22:58:05;9.43;;;3.97;;
49978;SDS011;35869;50.990;6.962;2023-04-04T23:03:06;8.25;;;3.70;;
49978;SDS011;35869;50.990;6.962;2023-04-04T23:08:06;4.18;;;2.83;;
49978;SDS011;35869;50.990;6.962;2023-04-04T23:13:06;6.95;;;3.78;;
49978;SDS011;35869;50.990;6.962;2023-04-04T23:18:07;5.05;;;2.95;;
49978;SDS011;35869;50.990;6.962;2023-04-04T23:23:07;5.75;;;3.95;;
49978;SDS011;35869;50.990;6.962;2023-04-04T23:28:07;9.57;;;3.97;;
49978;SDS011;35869;50.990;6.962;2023-04-04T23:33:07;6.28;;;3.55;;
49978;SDS011;35869;50.990;6.962;2023-04-04T23:38:07;5.68;;;3.55;;
49978;SDS011;35869;50.990;6.962;2023-04-04T23:43:08;6.32;;;3.60;;
49978;SDS011;35869;50.990;6.962;2023-04-04T23:48:08;5.32;;;3.83;;
49978;SDS011;35869;50.990;6.962;2023-04-04T23:53:09;5.38;;;3.70;;
49978;SDS011;35869;50.990;6.962;2023-04-04T23:58:09;8.68;;;3.63;;
